Time;durP1;ratioP1;P1;durP2;ratioP2;P2;SDS_P1;SDS_P2;PMS_P1;PMS_P2;Temp;Humidity;BMP_temperature;BMP_pressure;BME280_temperature;BME280_humidity;BME280_pressure;Samples;Min_cycle;Max_cycle;Signal;HPM_P1;HPM_P2
2023/01/26 00:01:46;;;;;;;135.10;39.67;;;-0.50;99.90;;;;;;5015872;28;20030;-88
2023/01/26 00:04:11;;;;;;;129.43;36.35;;;-0.50;99.90;;;;;;5017273;28;20022;-88
2023/01/26 00:06:37;;;;;;;129.95;34.78;;;-0.50;99.90;;;;;;5010646;28;20030;-88
2023/01/26 00:09:03;;;;;;;135.65;36.50;;;-0.50;99.90;;;;;;5015932;28;20033;-88
2023/01/26 00:11:29;;;;;;;120.35;35.25;;;-0.50;99.90;;;;;;5022042;28;20033;-89
2023/01/26 00:13:59;;;;;;;129.95;35.08;;;-0.50;99.90;;;;;;5010335;28;20026;-88
2023/01/26 00:16:25;;;;;;;119.13;30.20;;;-0.50;99.90;;;;;;5023780;28;20030;-88
2023/01/26 00:18:50;;;;;;;113.35;30.30;;;-0.50;99.90;;;;;;5017138;28;20408;-88
2023/01/26 00:21:19;;;;;;;127.40;34.83;;;-0.50;99.90;;;;;;5012786;28;20044;-88
2023/01/26 00:23:45;;;;;;;117.68;34.83;;;-0.50;99.90;;;;;;5003765;28;20022;-88
2023/01/26 00:26:18;;;;;;;134.30;34.30;;;-0.50;99.90;;;;;;5017462;28;20026;-88
2023/01/26 00:28:44;;;;;;;112.30;32.22;;;-0.50;99.90;;;;;;5016940;28;20018;-88
2023/01/26 00:31:13;;;;;;;125.00;37.47;;;-0.50;99.90;;;;;;5008724;28;20114;-86
2023/01/26 00:33:38;;;;;;;121.15;35.42;;;-0.60;99.90;;;;;;5016938;28;20030;-88
2023/01/26 00:36:04;;;;;;;123.22;33.28;;;-0.60;99.90;;;;;;5016277;28;20045;-88
2023/01/26 00:38:30;;;;;;;136.25;35.63;;;-0.60;99.90;;;;;;5015649;28;20026;-88
2023/01/26 00:40:55;;;;;;;126.43;33.88;;;-0.60;99.90;;;;;;5013328;28;20022;-89
2023/01/26 00:43:21;;;;;;;127.50;34.85;;;-0.60;99.90;;;;;;5011042;28;20041;-88
2023/01/26 00:45:47;;;;;;;121.05;36.47;;;-0.60;99.90;;;;;;5019075;28;20033;-89
2023/01/26 00:48:12;;;;;;;118.20;36.03;;;-0.60;99.90;;;;;;5014373;28;20041;-88
2023/01/26 00:50:38;;;;;;;120.40;33.45;;;-0.60;99.90;;;;;;5019396;28;20400;-88
2023/01/26 00:53:04;;;;;;;112.50;32.00;;;-0.70;99.90;;;;;;5016340;28;20026;-88
2023/01/26 00:55:32;;;;;;;116.35;33.08;;;-0.70;99.90;;;;;;5015923;28;20133;-88
2023/01/26 00:57:59;;;;;;;122.65;33.38;;;-0.70;99.90;;;;;;5015832;28;20091;-88
2023/01/26 01:00:26;;;;;;;120.68;33.35;;;-0.60;99.90;;;;;;5015082;28;20025;-88
2023/01/26 01:02:51;;;;;;;122.47;33.80;;;-0.60;99.90;;;;;;5016109;28;20121;-88
2023/01/26 01:05:17;;;;;;;132.30;36.42;;;-0.60;99.90;;;;;;5015507;28;20038;-88
2023/01/26 01:07:43;;;;;;;115.25;32.08;;;-0.60;99.90;;;;;;5019425;28;20018;-89
2023/01/26 01:10:09;;;;;;;124.95;33.25;;;-0.60;99.90;;;;;;5018636;28;20030;-89
2023/01/26 01:12:35;;;;;;;124.03;32.65;;;-0.60;99.90;;;;;;5017448;28;20032;-88
2023/01/26 01:15:01;;;;;;;125.05;32.35;;;-0.60;99.90;;;;;;5015479;28;20101;-89
2023/01/26 01:17:26;;;;;;;122.10;33.15;;;-0.60;99.90;;;;;;5016092;28;20022;-89
2023/01/26 01:19:52;;;;;;;121.90;33.92;;;-0.50;99.90;;;;;;5016882;28;20081;-89
2023/01/26 01:22:17;;;;;;;122.68;32.92;;;-0.50;99.90;;;;;;5011507;28;20026;-89
2023/01/26 01:24:43;;;;;;;136.10;35.17;;;-0.50;99.90;;;;;;5014278;28;20021;-88
2023/01/26 01:27:08;;;;;;;131.25;33.75;;;-0.50;99.90;;;;;;5004451;28;20018;-89
2023/01/26 01:29:34;;;;;;;135.93;34.47;;;-0.50;99.90;;;;;;5015082;28;20056;-88
2023/01/26 01:32:00;;;;;;;130.35;35.47;;;-0.40;99.90;;;;;;5014191;28;20034;-89
2023/01/26 01:34:26;;;;;;;130.05;34.90;;;-0.40;99.90;;;;;;5013446;28;20052;-88
2023/01/26 01:36:51;;;;;;;126.95;36.03;;;-0.50;99.90;;;;;;5006636;28;20022;-88
2023/01/26 01:39:17;;;;;;;124.72;33.25;;;-0.50;99.90;;;;;;5015295;28;20056;-89
2023/01/26 01:41:42;;;;;;;127.53;34.67;;;-0.40;99.90;;;;;;5008195;28;20076;-89
2023/01/26 01:44:17;;;;;;;132.70;38.25;;;-0.40;99.90;;;;;;5013535;28;20038;-90
2023/01/26 01:46:47;;;;;;;129.75;36.10;;;-0.40;99.90;;;;;;5014863;28;20026;-88
2023/01/26 01:49:15;;;;;;;131.10;35.58;;;-0.40;99.90;;;;;;5010510;28;20014;-88
2023/01/26 01:51:44;;;;;;;124.68;33.78;;;-0.40;99.90;;;;;;5015064;28;20029;-89
2023/01/26 01:54:14;;;;;;;131.68;33.92;;;-0.40;99.90;;;;;;5005339;28;20030;-89
2023/01/26 01:56:43;;;;;;;129.20;33.75;;;-0.40;99.90;;;;;;5006702;28;20030;-88
2023/01/26 01:59:11;;;;;;;117.90;31.35;;;-0.40;99.90;;;;;;5013952;28;20071;-88
2023/01/26 02:01:36;;;;;;;114.65;30.67;;;-0.30;99.90;;;;;;5014605;28;20030;-88
2023/01/26 02:04:05;;;;;;;112.45;30.15;;;-0.40;99.90;;;;;;5008665;28;20103;-88
2023/01/26 02:06:55;;;;;;;110.03;30.27;;;-0.40;99.90;;;;;;5014044;28;20034;-88
2023/01/26 02:12:13;;;;;;;126.70;31.73;;;-0.40;99.90;;;;;;5016015;28;20559;-89
2023/01/26 02:14:39;;;;;;;109.15;30.08;;;-0.40;99.90;;;;;;5012543;28;20038;-90
2023/01/26 02:17:05;;;;;;;108.65;32.78;;;-0.40;99.90;;;;;;5007125;28;20393;-90
2023/01/26 02:19:50;;;;;;;121.05;32.38;;;-0.30;99.90;;;;;;5014249;28;20037;-89
2023/01/26 02:22:45;;;;;;;120.38;32.97;;;-0.40;99.90;;;;;;5014398;28;20025;-89
2023/01/26 02:25:39;;;;;;;126.05;32.65;;;-0.40;99.90;;;;;;4983658;28;20456;-89
2023/01/26 02:28:05;;;;;;;109.10;31.00;;;-0.30;99.90;;;;;;5014986;28;20029;-89
2023/01/26 02:30:31;;;;;;;107.22;28.60;;;-0.30;99.90;;;;;;5013601;28;20034;-89
2023/01/26 02:32:57;;;;;;;112.78;30.15;;;-0.30;99.90;;;;;;5020328;28;20393;-89
2023/01/26 02:35:22;;;;;;;107.68;29.05;;;-0.30;99.90;;;;;;5028124;28;20081;-90
2023/01/26 02:37:48;;;;;;;109.40;30.52;;;-0.30;99.90;;;;;;5015472;28;20049;-89
2023/01/26 02:40:35;;;;;;;110.90;30.05;;;-0.30;99.90;;;;;;5006570;28;20030;-89
2023/01/26 02:43:01;;;;;;;102.80;28.52;;;-0.20;99.90;;;;;;5010857;28;20031;-89
2023/01/26 02:45:29;;;;;;;103.95;28.48;;;-0.20;99.90;;;;;;5006988;28;20034;-89
2023/01/26 02:47:54;;;;;;;103.38;27.38;;;-0.30;99.90;;;;;;5015460;28;20022;-89
2023/01/26 02:50:20;;;;;;;117.10;31.95;;;-0.20;99.90;;;;;;5020388;28;20037;-90
2023/01/26 02:52:45;;;;;;;106.57;30.35;;;-0.30;99.90;;;;;;5015055;28;20409;-90
2023/01/26 02:55:27;;;;;;;113.88;30.52;;;-0.20;99.90;;;;;;5014253;28;20472;-90
2023/01/26 02:58:01;;;;;;;106.95;28.35;;;-0.20;99.90;;;;;;5005047;28;20393;-90
2023/01/26 03:00:35;;;;;;;120.80;32.25;;;-0.20;99.90;;;;;;5007445;28;20493;-89
2023/01/26 03:03:06;;;;;;;101.15;28.40;;;-0.30;99.90;;;;;;5014942;28;20033;-90
2023/01/26 03:05:31;;;;;;;105.03;31.85;;;-0.20;99.90;;;;;;5014000;28;20468;-90
2023/01/26 03:07:57;;;;;;;104.13;29.20;;;-0.20;99.90;;;;;;5008889;28;20044;-90
2023/01/26 03:10:24;;;;;;;108.72;31.45;;;-0.20;99.90;;;;;;4995527;28;20050;-90
2023/01/26 03:12:49;;;;;;;117.35;31.52;;;-0.20;99.90;;;;;;5014873;28;20026;-90
2023/01/26 03:29:04;;;;;;;100.82;29.23;;;-0.10;99.90;;;;;;5022335;28;20131;-90
2023/01/26 03:31:29;;;;;;;104.35;29.27;;;-0.10;99.90;;;;;;5017551;28;20501;-90
2023/01/26 03:33:55;;;;;;;99.70;30.30;;;-0.10;99.90;;;;;;5015112;28;20034;-90
2023/01/26 03:36:20;;;;;;;109.68;30.33;;;0.00;99.90;;;;;;5037542;28;20074;-90
2023/01/26 03:38:46;;;;;;;103.90;28.63;;;-0.10;99.90;;;;;;5019658;28;20104;-90
2023/01/26 03:57:36;;;;;;;90.22;26.35;;;0.00;99.90;;;;;;5038918;28;20041;-91
2023/01/26 04:00:02;;;;;;;91.88;27.50;;;0.00;99.90;;;;;;5016817;28;20026;-91
2023/01/26 04:08:19;;;;;;;87.82;25.48;;;0.00;99.90;;;;;;5037222;28;20106;-91
2023/01/26 04:10:45;;;;;;;88.97;25.30;;;0.00;99.90;;;;;;5030608;28;20029;-91
2023/01/26 04:21:25;;;;;;;90.57;25.52;;;0.00;99.90;;;;;;5039598;28;20060;-91
2023/01/26 04:23:56;;;;;;;86.00;23.38;;;0.00;99.90;;;;;;5016651;28;20018;-90
2023/01/26 04:26:35;;;;;;;92.75;25.67;;;0.00;99.90;;;;;;5035514;28;20022;-91
2023/01/26 04:29:09;;;;;;;103.57;26.48;;;0.00;99.90;;;;;;5020628;28;20460;-91
2023/01/26 04:31:35;;;;;;;91.68;24.58;;;0.10;99.90;;;;;;5037330;28;20021;-91
2023/01/26 04:34:03;;;;;;;93.20;26.45;;;0.10;99.90;;;;;;5009113;28;20033;-91
2023/01/26 04:36:29;;;;;;;96.65;25.05;;;0.10;99.90;;;;;;5018679;28;20025;-90
2023/01/26 04:38:54;;;;;;;98.35;26.25;;;0.10;99.90;;;;;;5036794;28;20025;-91
2023/01/26 04:41:20;;;;;;;97.15;26.52;;;0.10;99.90;;;;;;5014237;28;20484;-91
2023/01/26 04:43:46;;;;;;;95.32;27.58;;;0.10;99.90;;;;;;5025066;28;20102;-91
2023/01/26 04:46:12;;;;;;;89.47;26.83;;;0.20;99.90;;;;;;5045783;28;20034;-91
2023/01/26 04:48:37;;;;;;;89.00;25.17;;;0.20;99.90;;;;;;5032899;28;20030;-90
2023/01/26 04:51:13;;;;;;;92.03;25.08;;;0.20;99.90;;;;;;5017401;28;20135;-91
2023/01/26 04:53:39;;;;;;;93.97;24.60;;;0.30;99.90;;;;;;5031833;28;20041;-92
2023/01/26 04:56:04;;;;;;;88.53;24.80;;;0.30;99.90;;;;;;5017175;28;20037;-92
2023/01/26 04:58:31;;;;;;;90.22;25.02;;;0.30;99.90;;;;;;5012530;28;20099;-92
2023/01/26 05:00:57;;;;;;;89.38;24.88;;;0.30;99.90;;;;;;5016926;28;20026;-93
2023/01/26 05:03:24;;;;;;;97.80;25.40;;;0.30;99.90;;;;;;5018539;28;20025;-92
2023/01/26 05:05:52;;;;;;;89.97;24.15;;;0.30;99.90;;;;;;5025949;28;20033;-92
2023/01/26 05:08:19;;;;;;;89.15;24.10;;;0.30;99.90;;;;;;5020010;28;20096;-92
2023/01/26 05:10:46;;;;;;;87.40;24.00;;;0.40;99.90;;;;;;5012381;28;20025;-92
2023/01/26 05:13:11;;;;;;;85.90;25.38;;;0.40;99.90;;;;;;5009735;28;20477;-93
2023/01/26 05:15:37;;;;;;;76.97;22.23;;;0.40;99.90;;;;;;5020422;28;20076;-92
2023/01/26 05:18:04;;;;;;;93.10;24.67;;;0.40;99.90;;;;;;5019317;28;20020;-94
2023/01/26 05:20:30;;;;;;;82.72;23.00;;;0.40;99.90;;;;;;5020819;28;20029;-92
2023/01/26 05:22:56;;;;;;;83.72;23.95;;;0.40;99.90;;;;;;5035209;28;20022;-92
2023/01/26 05:25:22;;;;;;;88.38;22.98;;;0.40;99.90;;;;;;5016956;28;20362;-92
2023/01/26 05:27:48;;;;;;;82.13;22.48;;;0.40;99.90;;;;;;5019187;28;20053;-92
2023/01/26 05:30:14;;;;;;;76.35;21.25;;;0.30;99.90;;;;;;5020144;28;20026;-92
2023/01/26 05:32:40;;;;;;;73.80;21.52;;;0.30;99.90;;;;;;5026086;28;20021;-92
2023/01/26 05:35:07;;;;;;;78.82;21.92;;;0.30;99.90;;;;;;5041187;28;20053;-92
2023/01/26 05:37:32;;;;;;;81.93;21.63;;;0.30;99.90;;;;;;5036984;28;20025;-93
2023/01/26 05:39:58;;;;;;;72.93;20.20;;;0.30;99.90;;;;;;5018925;28;20508;-93
2023/01/26 05:42:25;;;;;;;85.00;21.85;;;0.30;99.90;;;;;;5025336;28;20022;-93
2023/01/26 05:44:51;;;;;;;74.35;21.92;;;0.40;99.90;;;;;;5035694;28;20057;-93
2023/01/26 05:47:17;;;;;;;74.90;20.15;;;0.40;99.90;;;;;;5017323;28;20026;-92
2023/01/26 05:49:44;;;;;;;80.68;19.77;;;0.40;99.90;;;;;;5018214;28;20033;-92
2023/01/26 05:52:14;;;;;;;78.93;20.85;;;0.40;99.90;;;;;;5036546;28;20021;-93
2023/01/26 05:54:40;;;;;;;71.75;19.25;;;0.40;99.90;;;;;;5021253;28;20099;-93
2023/01/26 05:57:06;;;;;;;70.93;20.67;;;0.40;99.90;;;;;;5017930;28;20026;-87
2023/01/26 05:59:31;;;;;;;80.90;21.20;;;0.40;99.90;;;;;;5022940;28;20059;-92
2023/01/26 06:01:57;;;;;;;72.38;20.10;;;0.40;99.90;;;;;;5015174;28;20036;-93
2023/01/26 06:04:23;;;;;;;77.50;21.85;;;0.50;99.90;;;;;;5013990;28;20028;-92
2023/01/26 06:06:55;;;;;;;77.57;20.27;;;0.50;99.90;;;;;;5017714;28;20399;-93
2023/01/26 06:09:21;;;;;;;74.47;21.98;;;0.40;99.90;;;;;;5013984;28;20081;-92
2023/01/26 06:11:46;;;;;;;81.20;19.50;;;0.40;99.90;;;;;;5014857;28;20037;-94
2023/01/26 06:14:12;;;;;;;79.15;21.55;;;0.40;99.90;;;;;;5022072;28;20047;-93
2023/01/26 06:16:38;;;;;;;74.55;19.33;;;0.40;99.90;;;;;;5014865;28;20048;-93
2023/01/26 06:19:04;;;;;;;82.82;22.02;;;0.50;99.90;;;;;;5019998;28;20033;-93
2023/01/26 06:21:30;;;;;;;85.63;21.90;;;0.50;99.90;;;;;;5015331;28;20050;-94
2023/01/26 06:23:56;;;;;;;80.60;20.63;;;0.50;99.90;;;;;;5033515;28;20457;-94
2023/01/26 06:26:23;;;;;;;82.38;22.58;;;0.50;99.90;;;;;;5034208;28;20018;-94
2023/01/26 06:28:49;;;;;;;73.47;21.33;;;0.50;99.90;;;;;;5028731;28;20033;-93
2023/01/26 06:31:15;;;;;;;79.97;20.77;;;0.50;99.90;;;;;;5042671;28;20049;-93
2023/01/26 06:33:41;;;;;;;77.72;21.63;;;0.50;99.90;;;;;;5022462;28;20037;-93
2023/01/26 06:36:09;;;;;;;76.70;21.58;;;0.50;99.90;;;;;;5019450;28;20402;-94
2023/01/26 06:38:36;;;;;;;84.00;20.35;;;0.50;99.90;;;;;;5028476;28;20022;-94
2023/01/26 06:41:03;;;;;;;86.75;22.42;;;0.50;99.90;;;;;;5018373;28;20026;-95
2023/01/26 06:43:30;;;;;;;88.65;22.17;;;0.50;99.90;;;;;;5018017;28;20093;-93
2023/01/26 06:45:57;;;;;;;95.18;23.13;;;0.50;99.90;;;;;;5038789;28;20029;-95
2023/01/26 06:48:28;;;;;;;87.63;23.35;;;0.50;99.90;;;;;;5022996;28;20056;-95
2023/01/26 06:51:16;;;;;;;88.18;23.75;;;0.50;99.90;;;;;;5007925;28;20030;-93
2023/01/26 06:53:55;;;;;;;85.47;21.95;;;0.50;99.90;;;;;;5031470;28;20033;-95
2023/01/26 06:56:23;;;;;;;90.63;21.25;;;0.50;99.90;;;;;;5007905;28;20132;-93
2023/01/26 06:58:49;;;;;;;92.32;24.08;;;0.50;99.90;;;;;;5008283;28;21797;-93
2023/01/26 07:01:20;;;;;;;93.55;22.75;;;0.50;99.90;;;;;;5015290;28;20037;-93
2023/01/26 07:03:51;;;;;;;92.53;23.65;;;0.50;99.90;;;;;;5037625;28;20025;-93
2023/01/26 07:06:16;;;;;;;91.93;23.08;;;0.50;99.90;;;;;;5036027;28;20112;-94
2023/01/26 07:08:42;;;;;;;102.97;25.27;;;0.50;99.90;;;;;;5027934;28;20087;-94
2023/01/26 07:11:10;;;;;;;100.47;25.48;;;0.50;99.90;;;;;;5038506;28;20060;-93
2023/01/26 07:13:37;;;;;;;102.50;25.50;;;0.50;99.90;;;;;;5025030;28;20129;-94
2023/01/26 07:16:05;;;;;;;96.35;23.73;;;0.50;99.90;;;;;;5012301;28;20038;-93
2023/01/26 07:18:31;;;;;;;99.50;24.73;;;0.50;99.90;;;;;;5019601;28;20085;-93
2023/01/26 07:21:01;;;;;;;106.93;25.25;;;0.50;99.90;;;;;;5015676;28;20037;-93
2023/01/26 07:23:27;;;;;;;118.63;26.30;;;0.50;99.90;;;;;;5019674;28;20116;-95
2023/01/26 07:25:53;;;;;;;99.13;24.02;;;0.50;99.90;;;;;;5018810;28;20025;-93
2023/01/26 07:28:18;;;;;;;100.63;26.83;;;0.50;99.90;;;;;;5023726;28;20030;-92
2023/01/26 07:30:44;;;;;;;101.22;25.52;;;0.50;99.90;;;;;;5012081;28;20132;-90
2023/01/26 07:33:10;;;;;;;93.68;23.27;;;0.60;99.90;;;;;;5016228;28;20125;-89
2023/01/26 07:35:35;;;;;;;129.73;26.15;;;0.60;99.90;;;;;;5009391;28;20049;-88
2023/01/26 07:38:03;;;;;;;93.05;23.20;;;0.60;99.90;;;;;;5029303;28;20437;-88
2023/01/26 07:40:29;;;;;;;93.53;24.20;;;0.60;99.90;;;;;;5015086;28;20040;-91
2023/01/26 07:42:55;;;;;;;98.78;24.42;;;0.60;99.90;;;;;;5015921;28;20022;-91
2023/01/26 07:45:20;;;;;;;97.97;22.70;;;0.60;99.90;;;;;;5018455;28;20591;-92
2023/01/26 07:47:46;;;;;;;95.55;22.58;;;0.60;99.90;;;;;;5018334;28;20128;-91
2023/01/26 07:50:13;;;;;;;82.18;20.02;;;0.60;99.90;;;;;;5038292;28;20075;-91
2023/01/26 07:52:39;;;;;;;80.55;20.55;;;0.60;99.90;;;;;;5019838;28;20424;-92
2023/01/26 07:55:06;;;;;;;79.65;20.35;;;0.60;99.90;;;;;;5020111;28;20037;-91
2023/01/26 07:57:33;;;;;;;88.50;21.90;;;0.60;99.90;;;;;;5026643;28;20094;-93
2023/01/26 07:59:59;;;;;;;103.05;23.27;;;0.60;99.90;;;;;;5015434;28;20040;-92
2023/01/26 08:02:24;;;;;;;80.15;21.50;;;0.60;99.90;;;;;;5019642;28;20108;-92
2023/01/26 08:04:50;;;;;;;91.50;21.13;;;0.60;99.90;;;;;;5022504;28;20088;-93
2023/01/26 08:07:15;;;;;;;92.32;21.42;;;0.60;99.90;;;;;;5028173;28;20028;-92
2023/01/26 08:09:41;;;;;;;88.70;21.60;;;0.60;99.90;;;;;;5017497;28;20041;-92
2023/01/26 08:12:06;;;;;;;106.10;23.10;;;0.60;99.90;;;;;;5031339;28;20057;-92
2023/01/26 08:14:32;;;;;;;94.82;23.77;;;0.60;99.90;;;;;;5018187;28;20136;-92
2023/01/26 08:16:58;;;;;;;91.45;23.58;;;0.60;99.90;;;;;;5022172;28;20022;-91
2023/01/26 08:19:24;;;;;;;91.22;23.73;;;0.70;99.90;;;;;;5019272;28;20025;-91
2023/01/26 08:21:50;;;;;;;92.93;23.33;;;0.60;99.90;;;;;;5025178;28;20065;-93
2023/01/26 08:24:16;;;;;;;98.80;23.92;;;0.70;99.90;;;;;;5013937;28;20029;-92
2023/01/26 08:26:41;;;;;;;105.03;23.77;;;0.70;99.90;;;;;;5014699;28;20022;-92
2023/01/26 08:29:07;;;;;;;106.45;25.38;;;0.70;99.90;;;;;;5036369;28;20385;-93
2023/01/26 08:31:32;;;;;;;155.35;26.90;;;0.70;99.90;;;;;;5014291;28;20032;-93
2023/01/26 08:33:58;;;;;;;104.15;24.58;;;0.70;99.90;;;;;;5018108;28;20136;-94
2023/01/26 08:36:24;;;;;;;115.90;25.95;;;0.70;99.90;;;;;;5018648;28;20047;-93
2023/01/26 08:38:51;;;;;;;113.88;25.83;;;0.70;99.90;;;;;;5016392;28;20053;-94
2023/01/26 08:41:17;;;;;;;101.38;23.33;;;0.70;99.90;;;;;;5012473;28;20499;-94
2023/01/26 08:43:43;;;;;;;112.30;24.92;;;0.70;99.90;;;;;;5014941;28;20476;-94
2023/01/26 08:46:09;;;;;;;137.88;26.55;;;0.70;99.90;;;;;;5016944;28;20102;-95
2023/01/26 08:48:36;;;;;;;102.82;23.25;;;0.70;99.90;;;;;;5018270;28;20108;-94
2023/01/26 08:51:03;;;;;;;102.68;24.38;;;0.70;99.90;;;;;;5016414;28;20033;-90
2023/01/26 08:53:31;;;;;;;132.88;27.05;;;0.80;99.90;;;;;;5013368;28;20036;-92
2023/01/26 08:55:56;;;;;;;113.30;25.02;;;0.80;99.90;;;;;;5014539;28;20084;-91
2023/01/26 08:58:22;;;;;;;138.27;26.83;;;0.90;99.90;;;;;;5014404;28;20021;-92
2023/01/26 09:00:47;;;;;;;112.43;25.52;;;0.90;99.90;;;;;;5020505;28;20017;-92
2023/01/26 09:03:13;;;;;;;105.60;25.10;;;0.90;99.90;;;;;;5014301;28;20025;-93
2023/01/26 09:05:39;;;;;;;119.85;27.55;;;1.00;99.90;;;;;;5034220;28;20035;-92
2023/01/26 09:08:07;;;;;;;113.10;24.35;;;1.10;99.90;;;;;;5011325;28;20026;-92
2023/01/26 09:10:32;;;;;;;134.48;27.13;;;1.10;99.90;;;;;;5018560;28;20078;-89
2023/01/26 09:12:59;;;;;;;117.82;26.35;;;1.20;99.90;;;;;;5017937;28;20543;-90
2023/01/26 09:15:24;;;;;;;119.40;25.08;;;1.20;99.90;;;;;;5013858;28;20485;-91
2023/01/26 09:17:50;;;;;;;111.88;26.10;;;1.30;99.90;;;;;;5006765;28;20025;-91
2023/01/26 09:20:16;;;;;;;125.60;27.08;;;1.30;99.90;;;;;;5015784;28;20025;-91
2023/01/26 09:22:42;;;;;;;117.90;24.88;;;1.30;99.90;;;;;;5019043;28;20108;-90
2023/01/26 09:25:08;;;;;;;125.15;27.02;;;1.30;99.90;;;;;;5018258;28;20064;-91
2023/01/26 09:27:34;;;;;;;113.97;25.27;;;1.30;99.90;;;;;;5016094;28;20025;-90
2023/01/26 09:30:00;;;;;;;115.90;25.33;;;1.30;99.90;;;;;;5022193;28;20037;-88
2023/01/26 09:32:25;;;;;;;123.20;25.95;;;1.30;99.90;;;;;;5030558;28;20496;-90
2023/01/26 09:34:51;;;;;;;121.30;25.10;;;1.30;99.90;;;;;;5014953;28;20057;-90
2023/01/26 09:37:17;;;;;;;130.60;26.77;;;1.30;99.90;;;;;;5015902;28;20503;-90
2023/01/26 09:39:42;;;;;;;111.20;24.27;;;1.30;99.90;;;;;;5011078;28;20021;-93
2023/01/26 09:42:35;;;;;;;116.90;26.52;;;1.40;99.90;;;;;;5015147;28;20021;-92
2023/01/26 09:45:22;;;;;;;125.72;26.15;;;1.40;99.90;;;;;;5009371;28;20033;-90
2023/01/26 09:48:26;;;;;;;118.80;25.83;;;1.50;99.90;;;;;;5011196;28;20562;-91
2023/01/26 09:51:18;;;;;;;117.03;24.55;;;1.50;99.90;;;;;;5025973;28;20026;-92
2023/01/26 09:53:52;;;;;;;118.70;26.33;;;1.60;99.90;;;;;;5028991;28;20036;-90
2023/01/26 09:56:19;;;;;;;131.52;26.25;;;1.60;99.90;;;;;;5017321;28;20033;-91
2023/01/26 09:59:01;;;;;;;124.57;27.23;;;1.60;99.90;;;;;;5015599;28;20040;-92
2023/01/26 10:01:36;;;;;;;129.95;27.33;;;1.70;99.90;;;;;;5034672;28;20405;-92
2023/01/26 10:04:38;;;;;;;110.55;24.80;;;1.70;99.90;;;;;;5034131;28;20032;-92
2023/01/26 10:07:11;;;;;;;123.68;26.75;;;1.80;99.90;;;;;;4983548;28;20111;-93
2023/01/26 10:09:39;;;;;;;;;;;1.80;99.90;;;;;;5031213;28;20071;-92
2023/01/26 10:12:26;;;;;;;122.32;27.05;;;1.90;99.90;;;;;;5007173;28;20001;-93
2023/01/26 10:15:30;;;;;;;161.30;26.83;;;2.00;99.90;;;;;;5027709;28;20405;-92
2023/01/26 10:17:55;;;;;;;;;;;2.00;99.90;;;;;;5005521;28;20121;-92
2023/01/26 10:20:32;;;;;;;134.45;25.30;;;2.00;99.90;;;;;;5038773;28;19960;-91
2023/01/26 10:23:06;;;;;;;157.35;28.27;;;2.00;99.90;;;;;;5030824;28;20029;-92
2023/01/26 10:25:37;;;;;;;142.10;27.70;;;2.10;99.90;;;;;;5036996;28;20005;-94
2023/01/26 10:28:26;;;;;;;141.63;27.98;;;2.20;99.90;;;;;;5021952;28;20017;-92
2023/01/26 10:30:51;;;;;;;134.60;27.25;;;2.30;99.90;;;;;;5022165;28;20060;-91
2023/01/26 10:33:23;;;;;;;121.95;26.92;;;2.30;99.90;;;;;;5020559;28;20396;-93
2023/01/26 10:35:48;;;;;;;127.65;25.70;;;2.40;99.90;;;;;;5015895;28;20128;-90
2023/01/26 10:38:32;;;;;;;121.45;26.02;;;2.50;99.90;;;;;;5018558;28;20496;-92
2023/01/26 10:41:03;;;;;;;145.95;25.10;;;2.70;99.90;;;;;;5014924;28;20060;-90
2023/01/26 10:43:33;;;;;;;134.55;25.83;;;2.80;99.90;;;;;;5018681;28;20036;-91
2023/01/26 10:46:01;;;;;;;124.35;25.67;;;2.90;99.90;;;;;;5031321;28;20026;-90
2023/01/26 10:48:28;;;;;;;151.02;26.05;;;2.90;99.90;;;;;;5031702;28;20061;-91
2023/01/26 10:50:53;;;;;;;110.10;24.30;;;3.00;99.90;;;;;;5008716;28;20029;-92
2023/01/26 10:53:25;;;;;;;188.35;29.02;;;3.00;99.90;;;;;;5033348;28;20030;-90
2023/01/26 10:56:04;;;;;;;120.65;24.95;;;3.10;99.90;;;;;;5019278;28;20049;-92
2023/01/26 10:58:51;;;;;;;112.75;24.08;;;3.20;99.90;;;;;;5019251;28;20111;-92
2023/01/26 11:01:21;;;;;;;115.05;24.58;;;3.40;99.90;;;;;;5027920;28;20033;-92
2023/01/26 11:04:14;;;;;;;109.13;22.40;;;3.50;99.90;;;;;;5034834;28;20033;-93
2023/01/26 11:06:39;;;;;;;98.05;21.55;;;3.60;99.90;;;;;;5034209;28;20053;-93
2023/01/26 11:09:12;;;;;;;105.72;21.92;;;3.70;99.90;;;;;;5034839;28;20037;-92
2023/01/26 11:11:38;;;;;;;111.97;22.00;;;3.70;99.90;;;;;;5031010;28;20025;-95
2023/01/26 11:14:09;;;;;;;109.63;23.27;;;3.80;99.90;;;;;;5029877;28;20107;-93
2023/01/26 11:16:35;;;;;;;112.75;22.60;;;3.90;99.90;;;;;;5042970;28;20037;-93
2023/01/26 11:19:16;;;;;;;105.15;21.02;;;3.90;99.90;;;;;;5037684;28;20022;-92
2023/01/26 11:21:46;;;;;;;88.65;18.10;;;4.00;99.90;;;;;;5018103;28;20025;-93
2023/01/26 11:24:33;;;;;;;87.78;20.15;;;4.00;99.90;;;;;;5020398;28;20025;-93
2023/01/26 11:27:21;;;;;;;91.70;19.25;;;4.00;99.90;;;;;;5001111;28;20025;-87
2023/01/26 11:30:08;;;;;;;79.22;18.50;;;4.10;99.90;;;;;;5034304;28;20034;-90
2023/01/26 11:32:48;;;;;;;77.53;17.40;;;4.20;99.90;;;;;;5031805;28;20025;-90
2023/01/26 11:35:35;;;;;;;75.97;16.25;;;4.40;99.90;;;;;;5012767;28;20050;-89
2023/01/26 11:38:41;;;;;;;70.13;18.45;;;4.50;99.90;;;;;;5018173;28;20060;-90
2023/01/26 11:41:25;;;;;;;73.60;15.98;;;4.60;99.90;;;;;;5020997;28;20049;-87
2023/01/26 11:44:11;;;;;;;61.33;13.82;;;4.70;99.90;;;;;;5014927;28;20029;-92
2023/01/26 11:46:45;;;;;;;69.50;15.85;;;4.90;99.90;;;;;;5022339;28;20036;-95
2023/01/26 11:49:48;;;;;;;69.15;14.73;;;5.00;99.90;;;;;;5009195;28;20057;-95
2023/01/26 11:52:35;;;;;;;78.70;15.25;;;5.10;99.90;;;;;;5025544;28;20056;-94
2023/01/26 11:55:29;;;;;;;60.85;12.55;;;5.30;99.90;;;;;;5026374;28;20033;-96
2023/01/26 11:58:11;;;;;;;57.70;12.73;;;5.40;99.90;;;;;;5025893;28;20033;-95
2023/01/26 12:00:41;;;;;;;55.13;11.18;;;5.50;99.90;;;;;;5029439;28;20075;-94
2023/01/26 12:03:24;;;;;;;53.83;10.80;;;5.60;99.90;;;;;;5015809;28;20030;-96
2023/01/26 12:05:57;;;;;;;51.85;10.73;;;5.80;99.90;;;;;;5041476;28;20032;-95
2023/01/26 12:08:26;;;;;;;52.08;11.60;;;5.90;99.90;;;;;;5022098;28;20037;-94
2023/01/26 12:11:21;;;;;;;49.85;10.10;;;6.00;99.90;;;;;;5035898;28;20041;-93
2023/01/26 12:13:58;;;;;;;41.42;9.82;;;6.10;99.90;;;;;;5005282;28;20033;-95
2023/01/26 12:16:34;;;;;;;50.28;9.63;;;6.20;99.90;;;;;;5022251;28;20025;-93
2023/01/26 12:19:11;;;;;;;40.42;8.82;;;6.30;99.90;;;;;;5020169;28;20041;-94
2023/01/26 12:21:39;;;;;;;46.80;9.35;;;6.30;99.90;;;;;;5011636;28;20088;-94
2023/01/26 12:24:11;;;;;;;43.15;8.40;;;6.40;99.90;;;;;;5003376;28;20010;-94
2023/01/26 12:26:43;;;;;;;45.97;8.35;;;6.50;99.90;;;;;;5002987;28;20022;-93
2023/01/26 12:29:16;;;;;;;37.45;7.53;;;6.60;99.90;;;;;;5014087;28;20029;-94
2023/01/26 12:31:50;;;;;;;39.45;6.60;;;6.60;99.90;;;;;;5021291;28;20029;-94
2023/01/26 12:34:16;;;;;;;44.78;7.53;;;6.80;99.90;;;;;;5039145;28;20025;-94
2023/01/26 12:37:02;;;;;;;30.40;5.82;;;6.90;99.90;;;;;;5022840;28;20049;-93
2023/01/26 12:39:37;;;;;;;31.45;4.63;;;7.00;99.90;;;;;;5023174;28;20017;-95
2023/01/26 12:42:18;;;;;;;40.90;6.25;;;7.10;99.90;;;;;;5021665;28;20059;-94
2023/01/26 12:45:06;;;;;;;28.80;4.35;;;7.20;99.90;;;;;;5022796;28;20388;-94
2023/01/26 12:47:46;;;;;;;32.92;4.25;;;7.30;99.90;;;;;;5021588;28;20088;-95
2023/01/26 12:50:25;;;;;;;22.92;3.28;;;7.40;99.90;;;;;;5036961;28;20086;-94
2023/01/26 12:53:30;;;;;;;28.08;3.00;;;7.40;99.90;;;;;;5019884;28;20026;-94
2023/01/26 12:56:02;;;;;;;27.17;2.85;;;7.50;99.90;;;;;;5020416;28;20038;-94
2023/01/26 12:58:34;;;;;;;26.88;2.92;;;7.50;99.90;;;;;;5021691;28;20036;-94
2023/01/26 13:01:17;;;;;;;21.73;2.33;;;7.60;99.90;;;;;;5022031;28;20036;-95
2023/01/26 13:03:55;;;;;;;25.38;2.92;;;7.70;99.90;;;;;;5023379;28;20112;-96
2023/01/26 13:06:27;;;;;;;24.02;2.75;;;7.70;99.90;;;;;;5023048;28;20121;-95
2023/01/26 13:09:18;;;;;;;24.98;2.25;;;7.70;99.90;;;;;;5016490;28;20085;-90
2023/01/26 13:11:48;;;;;;;24.85;2.92;;;7.60;99.90;;;;;;5015388;28;20029;-94
2023/01/26 13:14:36;;;;;;;28.30;2.15;;;7.50;99.90;;;;;;5014678;28;20634;-96
2023/01/26 13:17:14;;;;;;;21.05;1.88;;;7.60;99.90;;;;;;5036075;28;20495;-93
2023/01/26 13:19:39;;;;;;;27.70;2.40;;;7.60;99.90;;;;;;5034796;28;20365;-96
2023/01/26 13:22:25;;;;;;;16.58;1.75;;;7.70;99.90;;;;;;5032590;28;20053;-96
2023/01/26 13:24:58;;;;;;;11.18;1.30;;;7.80;99.90;;;;;;5022220;28;20025;-94
2023/01/26 13:27:33;;;;;;;15.70;1.63;;;7.80;99.90;;;;;;5031290;28;20089;-95
2023/01/26 13:29:59;;;;;;;18.20;1.65;;;7.80;99.90;;;;;;5025350;28;20029;-96
2023/01/26 13:32:24;;;;;;;14.32;1.05;;;7.80;99.90;;;;;;5017968;28;20054;-95
2023/01/26 13:34:56;;;;;;;21.33;1.63;;;7.90;99.90;;;;;;5016190;28;20053;-95